Terminal Aerodrome Forecast
Issued by NWS

Home | Current Version | Previous Version | Text Only | Print | Product List | Glossary On
Versions: 1 2 3 4 5 6 7 8 9 10 11 12
000
FTUS42 TJSJ 032320
TAFIST
TAF
TIST 032320Z 0400/0424 08013KT P6SM FEW028
     FM041400 10019KT P6SM FEW250
     FM042300 10011KT P6SM FEW030 SCT060=

USA.gov is the U.S. government's official web portal to all federal, state and local government web resources and services.